Time;durP1;ratioP1;P1;durP2;ratioP2;P2;SDS_P1;SDS_P2;PMS_P1;PMS_P2;Temp;Humidity;BMP_temperature;BMP_pressure;BME280_temperature;BME280_humidity;BME280_pressure;Samples;Min_cycle;Max_cycle;Signal;HPM_P1;HPM_P2
2023/01/29 00:01:06;;;;;;;;;54.33;39.33;;;;;3.26;68.27;100003.13;5061138;28;45479;-74
2023/01/29 00:03:32;;;;;;;;;60.33;46.67;;;;;3.25;68.12;99996.19;5053613;28;45492;-75
2023/01/29 00:05:58;;;;;;;;;51.67;44.33;;;;;3.24;67.94;99999.66;5066021;28;45368;-74
2023/01/29 00:08:24;;;;;;;;;54.00;46.00;;;;;3.23;67.71;100003.13;5071960;28;47144;-74
2023/01/29 00:10:49;;;;;;;;;55.00;44.67;;;;;3.23;67.98;100002.25;5089290;27;45379;-73
2023/01/29 00:13:15;;;;;;;;;57.33;45.67;;;;;3.23;67.91;99997.03;5073890;28;45347;-73
2023/01/29 00:15:40;;;;;;;;;56.33;45.00;;;;;3.22;68.11;99993.56;5089167;27;45721;-74
2023/01/29 00:18:06;;;;;;;;;60.00;43.33;;;;;3.23;68.20;99997.03;5082304;27;47085;-73
2023/01/29 00:20:32;;;;;;;;;56.00;42.67;;;;;3.22;68.28;99993.56;5067261;28;45359;-74
2023/01/29 00:22:58;;;;;;;;;58.67;45.33;;;;;3.22;68.24;99992.69;5062960;28;45552;-74
2023/01/29 00:25:24;;;;;;;;;61.00;48.33;;;;;3.20;68.32;99994.41;5063124;28;45430;-74
2023/01/29 00:27:50;;;;;;;;;52.67;42.00;;;;;3.19;68.48;99995.28;5063097;28;46364;-74
2023/01/29 00:30:17;;;;;;;;;52.00;42.00;;;;;3.19;68.69;99990.06;5077081;28;45383;-74
2023/01/29 00:32:43;;;;;;;;;62.67;48.67;;;;;3.19;68.82;99990.94;5077096;28;45396;-74
2023/01/29 00:35:10;;;;;;;;;58.67;47.33;;;;;3.19;68.62;99990.06;5075056;28;45362;-74
2023/01/29 00:37:35;;;;;;;;;56.00;41.67;;;;;3.19;68.86;99992.66;5063788;28;45433;-74
2023/01/29 00:40:00;;;;;;;;;56.33;45.00;;;;;3.20;68.80;99979.66;5063101;27;45341;-74
2023/01/29 00:45:11;;;;;;;;;49.00;38.67;;;;;3.21;69.05;99983.13;5058722;28;45361;-74
2023/01/29 00:47:36;;;;;;;;;42.00;37.67;;;;;3.18;69.07;99986.63;5065585;28;48040;-74
2023/01/29 00:50:10;;;;;;;;;64.67;44.67;;;;;3.15;68.82;99987.47;5055634;28;45337;-73
2023/01/29 00:52:35;;;;;;;;;52.33;42.33;;;;;3.15;68.86;99986.59;5055123;28;45391;-75
2023/01/29 00:55:03;;;;;;;;;55.67;43.33;;;;;3.14;68.87;99988.34;5059575;28;45352;-75
2023/01/29 00:57:30;;;;;;;;;53.00;40.67;;;;;3.15;68.73;99986.59;5075748;28;47237;-75
2023/01/29 00:59:56;;;;;;;;;59.67;47.33;;;;;3.13;69.09;99997.03;5074880;28;45429;-75
2023/01/29 01:05:12;;;;;;;;;66.67;48.67;;;;;3.05;69.47;100000.44;5076213;28;45506;-75
2023/01/29 01:07:38;;;;;;;;;62.33;46.67;;;;;3.01;68.91;100006.53;5073967;28;46238;-75
2023/01/29 01:10:19;;;;;;;;;60.67;48.67;;;;;3.01;69.11;99996.97;5075047;28;45535;-75
2023/01/29 01:12:45;;;;;;;;;65.50;49.25;;;;;3.03;69.21;99997.81;5074731;28;45422;-74
2023/01/29 01:15:11;;;;;;;;;53.33;47.00;;;;;3.05;69.52;100003.91;5056156;28;45539;-74
2023/01/29 01:17:37;;;;;;;;;58.67;46.00;;;;;3.07;68.84;100007.41;5087519;27;46962;-74
2023/01/29 01:20:03;;;;;;;;;56.67;46.67;;;;;3.08;69.47;100016.97;5076029;28;45602;-73
2023/01/29 01:22:28;;;;;;;;;61.00;47.67;;;;;3.09;69.61;100010.88;5076576;28;45478;-75
2023/01/29 01:24:54;;;;;;;;;61.67;46.00;;;;;3.10;69.25;100002.22;5076245;28;45504;-74
2023/01/29 01:27:19;;;;;;;;;63.33;47.00;;;;;3.12;69.28;100010.03;5074209;28;46136;-74
2023/01/29 01:29:45;;;;;;;;;58.33;42.33;;;;;3.14;69.27;100010.91;5055831;28;45397;-75
2023/01/29 01:32:11;;;;;;;;;55.00;42.67;;;;;3.14;69.14;100010.91;5055461;28;45485;-74
2023/01/29 01:34:37;;;;;;;;;56.33;45.00;;;;;3.15;69.25;100017.88;5055633;28;45543;-74
2023/01/29 01:37:02;;;;;;;;;60.33;46.00;;;;;3.13;69.12;100015.25;5056026;28;45395;-74
2023/01/29 01:39:28;;;;;;;;;59.67;47.67;;;;;3.12;69.24;100015.25;5054630;28;45892;-74
2023/01/29 01:41:54;;;;;;;;;58.67;47.33;;;;;3.13;69.19;100017.00;5056214;28;45405;-74
2023/01/29 01:45:00;;;;;;;;;64.00;47.33;;;;;3.12;68.99;100012.63;5055853;28;45514;-74
2023/01/29 01:47:40;;;;;;;;;65.67;47.33;;;;;3.12;69.33;100020.47;5062526;28;45642;-74
2023/01/29 01:50:15;;;;;;;;;61.33;47.00;;;;;3.12;69.24;100016.13;5075356;28;45526;-74
2023/01/29 01:52:45;;;;;;;;;61.67;50.00;;;;;3.10;69.27;100023.06;5075640;28;45414;-74
2023/01/29 01:55:15;;;;;;;;;63.75;52.50;;;;;3.09;69.21;100026.53;5075192;28;45261;-74
2023/01/29 01:57:44;;;;;;;;;63.00;51.00;;;;;3.08;69.30;100014.34;5073469;28;46977;-74
2023/01/29 02:00:14;;;;;;;;;60.67;45.00;;;;;3.08;69.35;100024.78;5075369;28;45410;-73
2023/01/29 02:11:27;;;;;;;;;62.33;49.00;;;;;3.04;69.50;100022.13;5075396;28;45478;-74
2023/01/29 02:13:53;;;;;;;;;60.67;49.00;;;;;3.04;69.97;100025.63;5075657;28;45326;-74
2023/01/29 02:16:20;;;;;;;;;63.00;48.33;;;;;3.03;69.71;100023.88;5075542;28;45491;-73
2023/01/29 02:18:46;;;;;;;;;61.67;49.33;;;;;3.04;69.62;100022.13;5079363;27;47832;-74
2023/01/29 02:21:35;;;;;;;;;54.75;41.75;;;;;3.05;69.66;100022.16;5054547;28;45424;-74
2023/01/29 02:24:19;;;;;;;;;65.00;49.00;;;;;3.06;69.56;100038.66;5055087;28;45453;-74
2023/01/29 02:27:18;;;;;;;;;58.33;46.00;;;;;3.05;69.56;100042.13;5055075;28;45366;-74
2023/01/29 02:30:08;;;;;;;;;65.67;49.00;;;;;3.04;69.47;100040.38;5062226;28;47200;-74
2023/01/29 02:32:53;;;;;;;;;55.00;43.33;;;;;3.04;69.84;100043.84;5070223;28;45546;-74
2023/01/29 02:35:30;;;;;;;;;66.00;51.25;;;;;3.04;69.50;100043.84;5054870;28;45486;-73
2023/01/29 02:38:16;;;;;;;;;62.25;46.50;;;;;3.06;69.45;100049.06;5053530;28;45723;-74
2023/01/29 02:40:45;;;;;;;;;59.33;46.00;;;;;3.07;69.43;100050.81;5053044;28;46667;-74
2023/01/29 02:43:29;;;;;;;;;53.00;44.00;;;;;3.07;69.45;100053.41;5053741;28;45412;-74
2023/01/29 02:46:15;;;;;;;;;56.67;43.67;;;;;3.09;69.35;100056.91;5062709;28;45475;-74
2023/01/29 02:49:14;;;;;;;;;58.67;46.67;;;;;3.10;69.24;100058.66;5075255;28;45293;-74
2023/01/29 02:51:50;;;;;;;;;53.00;42.67;;;;;3.10;69.14;100059.53;5068438;28;46090;-74
2023/01/29 02:54:20;;;;;;;;;61.00;47.00;;;;;3.10;69.58;100066.47;5053124;28;45484;-74
2023/01/29 02:56:52;;;;;;;;;63.67;51.00;;;;;3.10;69.27;100062.13;5071993;28;45347;-73
2023/01/29 02:59:24;;;;;;;;;63.67;49.00;;;;;3.10;69.33;100063.84;5074767;28;45364;-74
2023/01/29 03:01:58;;;;;;;;;60.33;47.00;;;;;3.11;69.55;100058.66;5069165;28;45518;-74
2023/01/29 03:04:32;;;;;;;;;57.00;44.67;;;;;3.12;69.77;100064.75;5053850;28;45471;-73
2023/01/29 03:07:06;;;;;;;;;63.25;48.25;;;;;3.12;69.31;100072.56;5060719;28;45459;-74
2023/01/29 03:09:46;;;;;;;;;59.00;46.00;;;;;3.12;69.63;100078.63;5073005;28;45691;-74
2023/01/29 03:12:32;;;;;;;;;60.75;50.75;;;;;3.11;69.85;100081.22;5064291;28;46750;-74
2023/01/29 03:15:11;;;;;;;;;62.67;50.67;;;;;3.08;69.74;100087.28;5054375;28;45486;-74
2023/01/29 03:17:53;;;;;;;;;63.67;49.00;;;;;3.07;69.74;100098.56;5068156;28;45439;-74
2023/01/29 03:20:24;;;;;;;;;63.33;50.67;;;;;3.07;69.98;100097.69;5054280;28;45325;-74
2023/01/29 03:22:57;;;;;;;;;66.50;52.00;;;;;3.07;69.98;100090.75;5057905;28;45541;-74
2023/01/29 03:34:04;;;;;;;;;71.00;56.25;;;;;3.08;70.06;100100.31;5074192;28;45735;-74
2023/01/29 03:36:46;;;;;;;;;62.67;50.33;;;;;3.07;70.23;100089.88;5089624;27;45427;-74
2023/01/29 03:39:14;;;;;;;;;60.00;49.67;;;;;3.07;70.28;100093.38;5074317;28;45422;-74
2023/01/29 03:41:52;;;;;;;;;73.25;53.75;;;;;3.09;69.95;100095.97;5074220;28;45394;-74
2023/01/29 03:44:51;;;;;;;;;62.00;50.00;;;;;3.07;70.15;100095.97;5089704;27;45652;-74
2023/01/29 03:48:06;;;;;;;;;69.50;53.00;;;;;3.04;70.35;100095.94;5068719;28;45531;-74
2023/01/29 03:51:01;;;;;;;;;68.75;54.50;;;;;3.02;70.09;100099.41;5037219;28;45529;-74
2023/01/29 03:53:26;;;;;;;;;65.00;52.25;;;;;3.02;70.39;100107.22;5059448;27;45458;-73
2023/01/29 03:56:01;;;;;;;;;64.75;49.75;;;;;3.01;70.35;100108.09;5090877;27;46908;-73
2023/01/29 03:58:37;;;;;;;;;68.00;54.75;;;;;2.99;70.16;100115.03;5093560;27;45371;-74
2023/01/29 04:01:30;;;;;;;;;72.00;53.50;;;;;2.97;70.20;100115.03;5077393;28;45376;-74
2023/01/29 04:04:14;;;;;;;;;67.67;52.33;;;;;2.94;70.29;100125.41;5077218;28;45552;-74
2023/01/29 04:06:42;;;;;;;;;65.00;53.00;;;;;2.92;70.38;100118.44;5069390;28;45471;-74
2023/01/29 04:09:21;;;;;;;;;72.25;54.50;;;;;2.92;70.57;100123.66;5057233;28;45515;-74
2023/01/29 04:11:58;;;;;;;;;63.25;49.25;;;;;2.91;70.56;100121.91;5063714;28;45381;-74
2023/01/29 04:14:24;;;;;;;;;67.75;50.50;;;;;2.90;70.31;100125.38;5076288;28;45455;-73
2023/01/29 04:16:59;;;;;;;;;65.00;49.75;;;;;2.89;70.61;100124.50;5077466;28;46025;-74
2023/01/29 04:19:25;;;;;;;;;61.00;46.00;;;;;2.89;70.43;100131.44;5077084;28;45386;-74
2023/01/29 04:21:59;;;;;;;;;67.50;52.25;;;;;2.88;70.16;100134.91;5077694;27;45473;-73
2023/01/29 04:24:24;;;;;;;;;69.75;52.00;;;;;2.88;70.33;100137.50;5076862;28;45411;-74
2023/01/29 04:27:28;;;;;;;;;64.00;51.25;;;;;2.86;70.00;100132.28;5064294;28;47059;-74
2023/01/29 04:30:01;;;;;;;;;65.67;51.33;;;;;2.85;69.79;100129.69;5067008;28;45439;-73
2023/01/29 04:32:46;;;;;;;;;62.33;49.33;;;;;2.81;69.67;100126.19;5075944;28;45458;-73
2023/01/29 04:35:37;;;;;;;;;60.67;49.67;;;;;2.78;69.63;100129.66;5076723;28;45467;-73
2023/01/29 04:38:21;;;;;;;;;63.00;49.67;;;;;2.76;69.12;100120.94;5077165;27;45614;-73
2023/01/29 04:40:55;;;;;;;;;69.33;51.33;;;;;2.75;68.84;100124.41;5057528;27;45457;-74
2023/01/29 04:43:48;;;;;;;;;66.75;48.00;;;;;2.72;68.80;100120.91;5056735;28;45534;-73
2023/01/29 04:46:50;;;;;;;;;57.33;43.67;;;;;2.68;68.54;100122.59;5065948;28;45646;-75
2023/01/29 04:49:45;;;;;;;;;57.33;47.00;;;;;2.69;68.52;100113.06;5074142;28;47723;-75
2023/01/29 04:52:28;;;;;;;;;52.67;42.33;;;;;2.68;68.41;100112.19;5057125;27;45585;-73
2023/01/29 04:54:53;;;;;;;;;63.00;47.33;;;;;2.67;68.57;100113.09;5058721;28;45416;-75
2023/01/29 04:57:21;;;;;;;;;60.00;49.00;;;;;2.67;68.38;100112.22;5076850;27;45410;-75
2023/01/29 04:59:54;;;;;;;;;58.00;46.33;;;;;2.66;68.28;100118.28;5089966;27;46700;-74
2023/01/29 05:02:23;;;;;;;;;54.67;45.00;;;;;2.64;68.64;100114.78;5056511;28;45522;-74
2023/01/29 05:04:49;;;;;;;;;63.33;50.33;;;;;2.66;68.49;100120.88;5054893;28;45440;-74
2023/01/29 05:07:17;;;;;;;;;56.33;44.33;;;;;2.65;68.49;100113.94;5068330;28;45382;-72
2023/01/29 05:09:45;;;;;;;;;61.67;45.00;;;;;2.64;67.92;100118.25;5074692;28;46993;-74
2023/01/29 05:12:13;;;;;;;;;53.33;44.67;;;;;2.64;68.06;100114.78;5076801;28;45338;-74
2023/01/29 05:14:42;;;;;;;;;62.00;48.33;;;;;2.63;67.90;100115.66;5072574;28;45450;-74
2023/01/29 05:17:14;;;;;;;;;57.00;43.00;;;;;2.63;67.66;100120.84;5056588;28;45583;-74
2023/01/29 05:19:40;;;;;;;;;54.00;42.67;;;;;2.62;67.57;100129.50;5056004;28;46108;-74
2023/01/29 05:22:09;;;;;;;;;45.67;41.67;;;;;2.61;66.75;100125.16;5056408;28;45486;-74
2023/01/29 05:24:37;;;;;;;;;51.67;44.67;;;;;2.60;67.12;100128.63;5056181;28;45419;-74
2023/01/29 05:29:47;;;;;;;;;54.67;41.00;;;;;2.56;66.68;100126.84;5064583;28;45884;-74
2023/01/29 05:32:14;;;;;;;;;50.33;41.33;;;;;2.55;66.46;100125.97;5074819;28;45427;-74
2023/01/29 05:34:40;;;;;;;;;39.33;37.00;;;;;2.54;66.40;100123.38;5067692;27;45387;-74
2023/01/29 05:37:05;;;;;;;;;50.67;40.67;;;;;2.52;66.46;100117.28;5054446;28;45473;-74
2023/01/29 05:39:30;;;;;;;;;26.33;16.33;;;;;2.52;66.20;100125.06;5055917;28;46239;-74
2023/01/29 05:41:56;;;;;;;;;56.67;42.33;;;;;2.51;66.19;100128.56;5055675;28;45431;-74
2023/01/29 05:44:21;;;;;;;;;45.00;39.00;;;;;2.50;66.07;100139.84;5056195;28;45491;-74
2023/01/29 05:46:47;;;;;;;;;43.00;37.33;;;;;2.48;66.47;100133.75;5071156;28;45521;-74
2023/01/29 05:49:12;;;;;;;;;50.67;41.67;;;;;2.49;65.86;100148.50;5066414;27;46105;-75
2023/01/29 05:51:37;;;;;;;;;59.00;44.00;;;;;2.47;66.00;100145.88;5054321;28;45491;-74
2023/01/29 05:54:03;;;;;;;;;40.00;36.00;;;;;2.47;65.62;100147.59;5055929;28;45397;-74
2023/01/29 05:56:29;;;;;;;;;45.33;39.67;;;;;2.46;65.88;100157.16;5071240;28;45374;-74
2023/01/29 05:58:55;;;;;;;;;49.00;40.33;;;;;2.48;65.70;100154.56;5067281;27;46577;-75
2023/01/29 06:01:23;;;;;;;;;49.33;39.33;;;;;2.49;65.70;100166.72;5054241;28;45542;-74
2023/01/29 06:03:49;;;;;;;;;52.00;40.67;;;;;2.50;65.27;100158.06;5071536;28;45599;-74
2023/01/29 06:06:15;;;;;;;;;37.67;29.00;;;;;2.50;65.67;100165.88;5070484;28;45346;-74
2023/01/29 06:08:41;;;;;;;;;45.67;40.33;;;;;2.51;65.66;100165.88;5076025;28;45514;-74
2023/01/29 06:11:08;;;;;;;;;43.33;39.67;;;;;2.51;65.37;100171.09;5074319;28;45435;-74
2023/01/29 06:13:34;;;;;;;;;47.67;39.00;;;;;2.49;65.08;100172.78;5075946;28;45447;-74
2023/01/29 06:15:59;;;;;;;;;45.67;38.00;;;;;2.48;65.29;100170.19;5075500;28;45338;-74
2023/01/29 06:18:25;;;;;;;;;46.33;39.00;;;;;2.48;65.12;100173.66;5073546;28;47771;-74
2023/01/29 06:20:50;;;;;;;;;36.33;31.00;;;;;2.48;64.90;100178.84;5060180;28;45372;-74
2023/01/29 06:23:16;;;;;;;;;40.00;36.33;;;;;2.46;64.56;100185.78;5055522;28;45363;-74
2023/01/29 06:25:41;;;;;;;;;39.00;36.00;;;;;2.45;64.52;100178.81;5055087;28;45365;-74
2023/01/29 06:28:06;;;;;;;;;48.33;38.67;;;;;2.43;64.51;100184.00;5067274;27;46450;-74
2023/01/29 06:30:32;;;;;;;;;57.50;42.00;;;;;2.43;64.65;100183.13;5055516;28;45511;-74
2023/01/29 06:32:58;;;;;;;;;41.67;34.00;;;;;2.42;64.42;100178.78;5063716;28;45494;-74
2023/01/29 06:35:24;;;;;;;;;41.33;33.33;;;;;2.40;64.55;100188.31;5073725;28;45466;-74
2023/01/29 06:37:50;;;;;;;;;45.00;39.67;;;;;2.40;64.66;100194.38;5075247;28;46216;-74
2023/01/29 06:40:15;;;;;;;;;47.00;39.00;;;;;2.42;64.62;100192.66;5073554;28;45465;-74
2023/01/29 06:42:40;;;;;;;;;53.00;40.67;;;;;2.42;64.58;100204.81;5055160;28;45953;-74
2023/01/29 06:45:06;;;;;;;;;43.33;40.33;;;;;2.43;64.25;100209.16;5054839;28;45571;-74
2023/01/29 06:47:32;;;;;;;;;49.67;43.00;;;;;2.42;64.65;100199.59;5055046;28;45530;-74
2023/01/29 06:49:57;;;;;;;;;42.00;38.00;;;;;2.43;64.27;100214.38;5054710;28;45369;-74
2023/01/29 06:52:24;;;;;;;;;41.00;37.00;;;;;2.42;64.39;100229.09;5074840;27;45403;-74
2023/01/29 06:54:49;;;;;;;;;49.33;41.67;;;;;2.43;64.45;100241.25;5074978;28;45379;-74
2023/01/29 06:57:15;;;;;;;;;47.33;40.00;;;;;2.44;64.35;100242.13;5066761;27;45329;-74
2023/01/29 06:59:40;;;;;;;;;53.00;43.00;;;;;2.42;64.27;100249.91;5054476;28;45382;-74
2023/01/29 07:02:05;;;;;;;;;45.33;36.33;;;;;2.42;64.30;100255.13;5061551;28;45379;-74
2023/01/29 07:04:31;;;;;;;;;46.67;38.33;;;;;2.41;64.36;100258.59;5073257;27;45373;-74
2023/01/29 07:06:58;;;;;;;;;42.33;37.00;;;;;2.40;64.28;100262.03;5064518;28;46142;-74
2023/01/29 07:09:24;;;;;;;;;40.67;35.67;;;;;2.38;64.28;100273.28;5059920;27;45427;-74
2023/01/29 07:11:49;;;;;;;;;51.00;40.33;;;;;2.38;64.38;100275.88;5054782;28;45511;-74
2023/01/29 07:14:14;;;;;;;;;47.33;38.00;;;;;2.38;64.48;100270.69;5054072;28;45498;-74
2023/01/29 07:16:40;;;;;;;;;51.67;40.00;;;;;2.37;64.46;100268.94;5054050;28;46390;-74
2023/01/29 07:19:05;;;;;;;;;44.67;34.67;;;;;2.38;63.97;100283.69;5052415;28;45496;-74
2023/01/29 07:21:30;;;;;;;;;46.00;37.67;;;;;2.37;64.16;100276.75;5054622;28;45447;-74
2023/01/29 07:23:56;;;;;;;;;46.00;36.33;;;;;2.36;64.04;100277.59;5054014;28;45504;-74
2023/01/29 07:26:21;;;;;;;;;47.00;37.33;;;;;2.36;63.90;100283.66;5060544;28;46867;-74
2023/01/29 07:28:47;;;;;;;;;38.00;34.33;;;;;2.36;63.59;100280.19;5058973;28;45444;-74
2023/01/29 07:31:13;;;;;;;;;44.33;37.00;;;;;2.33;63.67;100275.84;5058394;28;45453;-74
2023/01/29 07:33:39;;;;;;;;;36.33;29.00;;;;;2.32;63.75;100278.44;5059220;28;45529;-74
2023/01/29 07:36:09;;;;;;;;;35.00;34.67;;;;;2.32;63.67;100274.09;5060558;28;45946;-74
2023/01/29 07:38:36;;;;;;;;;41.00;35.33;;;;;2.31;63.95;100277.56;5060153;28;45366;-74
2023/01/29 07:41:01;;;;;;;;;31.33;28.00;;;;;2.28;63.84;100285.31;5060986;28;45386;-74
2023/01/29 07:43:27;;;;;;;;;42.00;35.67;;;;;2.28;63.98;100287.94;5073066;28;45568;-74
2023/01/29 07:45:52;;;;;;;;;33.33;31.00;;;;;2.30;63.56;100285.34;5059327;28;46481;-74
2023/01/29 07:48:18;;;;;;;;;44.33;37.00;;;;;2.31;63.73;100294.91;5060643;28;45404;-74
2023/01/29 07:50:43;;;;;;;;;48.00;36.33;;;;;2.30;63.60;100291.44;5060595;28;45484;-74
2023/01/29 07:53:13;;;;;;;;;45.33;38.33;;;;;2.30;63.11;100295.75;5074318;28;45557;-74
2023/01/29 07:55:38;;;;;;;;;54.33;37.00;;;;;2.29;63.42;100297.47;5068728;28;45427;-74
2023/01/29 07:58:04;;;;;;;;;31.33;30.00;;;;;2.28;63.32;100305.25;5079574;27;45510;-74
2023/01/29 08:00:31;;;;;;;;;40.00;35.33;;;;;2.28;63.35;100302.66;5060454;28;45461;-74
2023/01/29 08:03:09;;;;;;;;;39.33;36.67;;;;;2.28;63.23;100306.13;5060239;28;45467;-74
2023/01/29 08:05:35;;;;;;;;;41.67;33.00;;;;;2.29;63.14;100320.03;5059751;28;45741;-74
2023/01/29 08:08:00;;;;;;;;;34.67;30.00;;;;;2.30;63.34;100324.38;5079074;28;45403;-74
2023/01/29 08:10:26;;;;;;;;;44.33;34.67;;;;;2.32;63.27;100330.47;5080349;28;45360;-74
2023/01/29 08:13:00;;;;;;;;;43.00;39.33;;;;;2.35;63.38;100336.56;5080443;28;45466;-74
2023/01/29 08:15:26;;;;;;;;;46.00;38.00;;;;;2.37;63.03;100344.41;5078652;28;47970;-74
2023/01/29 08:17:52;;;;;;;;;39.67;34.67;;;;;2.36;63.05;100345.25;5080036;28;45338;-74
2023/01/29 08:20:18;;;;;;;;;43.00;38.33;;;;;2.36;63.00;100345.25;5079822;28;45366;-74
2023/01/29 08:22:44;;;;;;;;;36.00;34.00;;;;;2.40;63.34;100352.25;5075161;28;45499;-74
2023/01/29 08:25:10;;;;;;;;;39.00;36.33;;;;;2.44;63.01;100348.84;5086034;27;47605;-74
2023/01/29 08:27:35;;;;;;;;;41.00;37.00;;;;;2.46;62.83;100349.72;5076101;28;45366;-74
2023/01/29 08:30:01;;;;;;;;;39.33;33.33;;;;;2.48;63.18;100347.16;5059920;28;45537;-74
2023/01/29 08:32:26;;;;;;;;;50.00;38.00;;;;;2.51;62.79;100347.19;5073031;28;45495;-74
2023/01/29 08:34:51;;;;;;;;;47.67;41.33;;;;;2.53;62.44;100342.84;5057969;28;47148;-74
2023/01/29 08:37:17;;;;;;;;;45.67;36.33;;;;;2.54;62.26;100349.81;5060112;28;45499;-74
2023/01/29 08:39:42;;;;;;;;;42.33;37.00;;;;;2.54;62.40;100345.47;5059767;28;45495;-74
2023/01/29 08:42:08;;;;;;;;;44.67;33.33;;;;;2.54;62.22;100348.06;5057168;28;45435;-74
2023/01/29 08:44:33;;;;;;;;;44.00;37.67;;;;;2.55;62.46;100334.22;5066437;28;46280;-74
2023/01/29 08:46:59;;;;;;;;;27.67;26.67;;;;;2.57;62.29;100334.22;5059041;27;45447;-74
2023/01/29 08:49:24;;;;;;;;;50.00;41.67;;;;;2.59;62.35;100329.91;5055866;28;45330;-74
2023/01/29 08:51:53;;;;;;;;;39.33;30.33;;;;;2.62;62.33;100327.34;5056617;28;45409;-74
2023/01/29 08:54:18;;;;;;;;;42.33;37.67;;;;;2.64;61.91;100325.66;5067068;28;45305;-74
2023/01/29 08:56:44;;;;;;;;;40.33;30.67;;;;;2.67;61.75;100320.47;5076207;27;45547;-74
2023/01/29 08:59:10;;;;;;;;;26.67;25.00;;;;;2.67;61.90;100320.47;5076246;28;45380;-74
2023/01/29 09:01:35;;;;;;;;;42.00;35.67;;;;;2.70;61.94;100316.16;5071382;28;45381;-74
2023/01/29 09:04:00;;;;;;;;;26.00;23.00;;;;;2.74;61.86;100317.06;5055681;28;46113;-74
2023/01/29 09:06:26;;;;;;;;;46.33;36.00;;;;;2.78;61.63;100309.31;5062171;28;45416;-74
2023/01/29 09:08:51;;;;;;;;;37.67;33.00;;;;;2.79;61.40;100302.38;5066477;27;45369;-74
2023/01/29 09:11:17;;;;;;;;;38.33;35.67;;;;;2.83;60.89;100295.47;5054804;28;45506;-74
2023/01/29 09:13:42;;;;;;;;;37.67;32.33;;;;;2.85;61.30;100296.38;5054470;28;47623;-74
2023/01/29 09:16:08;;;;;;;;;41.33;36.33;;;;;2.88;61.21;100297.25;5055966;28;45706;-74
2023/01/29 09:18:34;;;;;;;;;34.33;31.00;;;;;2.92;61.14;100296.41;5065347;28;45540;-75
2023/01/29 09:21:01;;;;;;;;;36.00;31.33;;;;;2.96;61.48;100294.72;5057368;28;45393;-74
2023/01/29 09:23:27;;;;;;;;;47.33;40.00;;;;;3.00;60.94;100293.91;5055529;28;45408;-75
2023/01/29 09:25:52;;;;;;;;;42.67;38.67;;;;;3.04;60.62;100296.53;5055422;28;45460;-75
2023/01/29 09:28:18;;;;;;;;;40.33;34.33;;;;;3.07;60.42;100291.34;5055585;28;45275;-73
2023/01/29 09:30:43;;;;;;;;;48.33;38.00;;;;;3.09;60.60;100300.06;5055695;28;45503;-75
2023/01/29 09:33:09;;;;;;;;;42.67;35.67;;;;;3.14;60.59;100305.31;5056047;28;45659;-73
2023/01/29 09:35:34;;;;;;;;;43.33;38.33;;;;;3.24;60.93;100311.47;5055354;28;45406;-75
2023/01/29 09:38:00;;;;;;;;;44.67;39.00;;;;;3.34;60.63;100315.91;5053998;28;45485;-75
2023/01/29 09:40:33;;;;;;;;;52.67;40.67;;;;;3.42;60.26;100320.31;5055226;28;45457;-75
2023/01/29 09:43:19;;;;;;;;;58.67;38.33;;;;;3.53;60.14;100325.59;5065021;28;47368;-75
2023/01/29 09:46:00;;;;;;;;;43.00;39.67;;;;;3.62;59.92;100324.81;5068896;28;45571;-74
2023/01/29 09:48:30;;;;;;;;;51.00;42.33;;;;;3.73;60.01;100325.75;5055302;28;45535;-75
2023/01/29 09:50:59;;;;;;;;;51.00;39.00;;;;;3.83;60.44;100338.88;5054830;28;45491;-74
2023/01/29 09:53:39;;;;;;;;;41.00;35.67;;;;;3.86;60.36;100344.06;5054593;28;45359;-75
2023/01/29 09:56:13;;;;;;;;;56.33;42.67;;;;;3.93;59.98;100339.78;5065269;28;45414;-75
2023/01/29 09:58:43;;;;;;;;;62.33;48.33;;;;;3.98;60.98;100340.69;5090933;27;45345;-75
2023/01/29 10:01:20;;;;;;;;;58.67;48.67;;;;;4.04;60.78;100342.44;5075356;28;45643;-75
2023/01/29 10:04:10;;;;;;;;;65.67;48.00;;;;;4.09;60.54;100340.75;5075006;28;45351;-75
2023/01/29 10:06:57;;;;;;;;;55.67;44.00;;;;;4.16;60.71;100342.53;5067807;28;45460;-75
2023/01/29 10:09:44;;;;;;;;;63.33;50.00;;;;;4.27;60.82;100347.81;5053578;28;45363;-75
2023/01/29 10:12:50;;;;;;;;;59.00;45.67;;;;;4.36;60.97;100350.44;5053176;28;45622;-75
2023/01/29 10:15:39;;;;;;;;;58.67;47.33;;;;;4.44;61.09;100349.63;5060696;28;45493;-75
2023/01/29 10:18:35;;;;;;;;;55.00;43.00;;;;;4.56;60.95;100348.78;5069671;28;45503;-75
2023/01/29 10:21:51;;;;;;;;;65.50;50.50;;;;;4.65;60.83;100346.22;5052792;28;45424;-75
2023/01/29 10:24:31;;;;;;;;;61.00;46.67;;;;;4.70;60.64;100344.47;5049095;28;45545;-75
2023/01/29 10:26:58;;;;;;;;;60.33;46.00;;;;;4.76;60.89;100346.25;5052380;28;46888;-75
2023/01/29 10:29:25;;;;;;;;;67.67;51.67;;;;;4.80;60.69;100330.59;5052525;28;45326;-75
2023/01/29 10:32:03;;;;;;;;;63.00;50.67;;;;;4.84;60.47;100339.31;5065179;28;45425;-75
2023/01/29 10:34:41;;;;;;;;;55.67;40.67;;;;;4.91;60.16;100341.94;5089496;27;45502;-75
2023/01/29 10:37:31;;;;;;;;;60.33;48.00;;;;;5.00;59.96;100328.03;5072612;27;45509;-75
2023/01/29 10:39:58;;;;;;;;;61.67;43.67;;;;;5.10;60.36;100331.53;5065332;28;45458;-74
2023/01/29 10:42:27;;;;;;;;;59.67;46.00;;;;;5.15;59.62;100329.78;5059051;28;45437;-76
2023/01/29 10:45:40;;;;;;;;;57.67;47.00;;;;;5.20;59.67;100312.34;5061922;27;45534;-75
2023/01/29 10:48:34;;;;;;;;;61.67;48.33;;;;;5.25;59.21;100311.50;5063786;28;46639;-75
2023/01/29 10:51:25;;;;;;;;;47.67;38.33;;;;;5.35;59.37;100311.50;5073946;28;45391;-74
2023/01/29 10:54:35;;;;;;;;;58.00;46.67;;;;;5.42;58.93;100314.09;5074096;28;45627;-75
2023/01/29 10:57:06;;;;;;;;;58.00;46.33;;;;;5.50;58.35;100309.75;5069475;28;45386;-75
2023/01/29 11:00:12;;;;;;;;;53.67;43.67;;;;;5.55;58.66;100313.22;5074003;28;45484;-75
2023/01/29 11:02:46;;;;;;;;;54.67;43.00;;;;;5.56;57.31;100311.47;5030722;28;45537;-75
2023/01/29 11:05:38;;;;;;;;;47.00;37.67;;;;;5.57;57.23;100308.88;5080033;27;45487;-75
2023/01/29 11:08:12;;;;;;;;;47.33;37.67;;;;;5.59;56.95;100308.88;5053052;28;45397;-75
2023/01/29 11:10:47;;;;;;;;;42.33;37.00;;;;;5.63;56.99;100305.38;5052052;28;47902;-75
2023/01/29 11:13:15;;;;;;;;;51.00;41.33;;;;;5.68;56.22;100306.25;5067025;28;45345;-75
2023/01/29 11:15:40;;;;;;;;;41.67;37.00;;;;;5.72;56.46;100304.47;5051920;28;45455;-75
2023/01/29 11:18:13;;;;;;;;;45.00;37.67;;;;;5.80;55.99;100305.34;5053937;28;45419;-75
2023/01/29 11:20:40;;;;;;;;;46.67;38.67;;;;;5.85;56.06;100298.38;5053334;28;45647;-75
2023/01/29 11:23:24;;;;;;;;;53.33;38.33;;;;;5.86;55.91;100297.50;5053417;28;45592;-73
2023/01/29 11:25:54;;;;;;;;;40.00;32.67;;;;;5.84;56.14;100294.88;5053840;28;45364;-75
2023/01/29 11:28:38;;;;;;;;;35.67;30.00;;;;;5.87;55.91;100297.47;5053436;28;45689;-73
2023/01/29 11:31:15;;;;;;;;;47.33;34.33;;;;;5.88;55.39;100295.72;5059504;28;46536;-75
2023/01/29 11:33:41;;;;;;;;;56.00;42.00;;;;;5.91;55.11;100301.88;5072311;28;45382;-73
2023/01/29 11:36:31;;;;;;;;;44.33;37.33;;;;;5.98;55.07;100300.13;5061473;28;45384;-73
2023/01/29 11:39:22;;;;;;;;;37.33;30.00;;;;;6.01;54.88;100301.88;5069143;27;45439;-74
2023/01/29 11:41:55;;;;;;;;;54.00;40.00;;;;;6.02;54.77;100301.88;5053438;28;46819;-73
2023/01/29 11:44:31;;;;;;;;;39.33;35.67;;;;;6.07;54.76;100299.19;5060304;28;45443;-75
2023/01/29 11:47:17;;;;;;;;;48.00;39.33;;;;;6.13;55.31;100305.31;5055205;28;45369;-75
2023/01/29 11:49:57;;;;;;;;;55.00;41.67;;;;;6.14;54.10;100295.72;5051438;28;45411;-76
2023/01/29 11:52:40;;;;;;;;;40.00;36.33;;;;;6.17;54.57;100295.69;5061260;28;45509;-74
2023/01/29 11:55:21;;;;;;;;;41.00;35.00;;;;;6.16;54.39;100297.44;5071657;28;45447;-74
2023/01/29 11:58:11;;;;;;;;;50.33;38.67;;;;;6.18;54.39;100293.09;5060017;28;45466;-75
2023/01/29 12:00:40;;;;;;;;;42.00;38.00;;;;;6.19;54.40;100289.59;5062428;28;45558;-74
2023/01/29 12:03:26;;;;;;;;;49.67;38.33;;;;;6.24;54.07;100297.41;5072958;28;45395;-74
2023/01/29 12:06:02;;;;;;;;;48.33;36.33;;;;;6.21;54.06;100287.81;5072224;27;45387;-74